sensor_id;sensor_type;location;lat;lon;timestamp;temperature;humidity
3727;DHT22;1879;45.876;12.300;2023-01-13T00:00:13;7.20;99.90
3727;DHT22;1879;45.876;12.300;2023-01-13T00:02:41;7.20;99.90
3727;DHT22;1879;45.876;12.300;2023-01-13T00:05:09;7.20;99.90
3727;DHT22;1879;45.876;12.300;2023-01-13T00:07:37;7.20;99.90
3727;DHT22;1879;45.876;12.300;2023-01-13T00:10:06;7.10;99.90
3727;DHT22;1879;45.876;12.300;2023-01-13T00:12:33;7.10;99.90
3727;DHT22;1879;45.876;12.300;2023-01-13T00:15:00;7.10;99.90
3727;DHT22;1879;45.876;12.300;2023-01-13T00:17:27;7.10;99.90
3727;DHT22;1879;45.876;12.300;2023-01-13T00:19:54;7.10;99.90
3727;DHT22;1879;45.876;12.300;2023-01-13T00:22:22;7.00;99.90
3727;DHT22;1879;45.876;12.300;2023-01-13T00:24:49;7.00;99.90
3727;DHT22;1879;45.876;12.300;2023-01-13T00:27:16;7.10;99.90
3727;DHT22;1879;45.876;12.300;2023-01-13T00:29:43;7.10;99.90
3727;DHT22;1879;45.876;12.300;2023-01-13T00:32:10;7.10;99.90
3727;DHT22;1879;45.876;12.300;2023-01-13T00:34:37;7.20;99.90
3727;DHT22;1879;45.876;12.300;2023-01-13T00:37:04;7.20;99.90
3727;DHT22;1879;45.876;12.300;2023-01-13T00:39:32;7.30;99.90
3727;DHT22;1879;45.876;12.300;2023-01-13T00:41:59;7.30;99.90
3727;DHT22;1879;45.876;12.300;2023-01-13T00:44:43;7.30;99.90
3727;DHT22;1879;45.876;12.300;2023-01-13T00:47:10;7.30;99.90
3727;DHT22;1879;45.876;12.300;2023-01-13T00:49:37;7.30;99.90
3727;DHT22;1879;45.876;12.300;2023-01-13T00:52:04;7.30;99.90
3727;DHT22;1879;45.876;12.300;2023-01-13T00:54:32;7.30;99.90
3727;DHT22;1879;45.876;12.300;2023-01-13T00:56:59;7.30;99.90
3727;DHT22;1879;45.876;12.300;2023-01-13T00:59:27;7.30;99.90
3727;DHT22;1879;45.876;12.300;2023-01-13T01:01:54;7.30;99.90
3727;DHT22;1879;45.876;12.300;2023-01-13T01:04:21;7.30;99.90
3727;DHT22;1879;45.876;12.300;2023-01-13T01:06:48;7.30;99.90
3727;DHT22;1879;45.876;12.300;2023-01-13T01:09:15;7.30;99.90
3727;DHT22;1879;45.876;12.300;2023-01-13T01:11:44;7.30;99.90
3727;DHT22;1879;45.876;12.300;2023-01-13T01:14:12;7.40;99.90
3727;DHT22;1879;45.876;12.300;2023-01-13T01:16:40;7.20;99.90
3727;DHT22;1879;45.876;12.300;2023-01-13T01:19:07;7.20;99.90
3727;DHT22;1879;45.876;12.300;2023-01-13T01:21:34;7.20;99.90
3727;DHT22;1879;45.876;12.300;2023-01-13T01:24:05;7.10;99.90
3727;DHT22;1879;45.876;12.300;2023-01-13T01:26:32;7.10;99.90
3727;DHT22;1879;45.876;12.300;2023-01-13T01:29:00;7.20;99.90
3727;DHT22;1879;45.876;12.300;2023-01-13T01:31:29;7.20;99.90
3727;DHT22;1879;45.876;12.300;2023-01-13T01:33:57;7.30;99.90
3727;DHT22;1879;45.876;12.300;2023-01-13T01:36:26;7.30;99.90
3727;DHT22;1879;45.876;12.300;2023-01-13T01:38:55;7.40;99.90
3727;DHT22;1879;45.876;12.300;2023-01-13T01:41:25;7.50;99.90
3727;DHT22;1879;45.876;12.300;2023-01-13T01:43:53;7.50;99.90
3727;DHT22;1879;45.876;12.300;2023-01-13T01:46:32;7.50;99.90
3727;DHT22;1879;45.876;12.300;2023-01-13T01:49:14;7.40;99.90
3727;DHT22;1879;45.876;12.300;2023-01-13T01:51:47;7.40;99.90
3727;DHT22;1879;45.876;12.300;2023-01-13T01:54:18;7.30;99.90
3727;DHT22;1879;45.876;12.300;2023-01-13T01:56:46;7.20;99.90
3727;DHT22;1879;45.876;12.300;2023-01-13T01:59:14;7.20;99.90
3727;DHT22;1879;45.876;12.300;2023-01-13T02:01:43;7.20;99.90
3727;DHT22;1879;45.876;12.300;2023-01-13T02:04:14;7.20;99.90
3727;DHT22;1879;45.876;12.300;2023-01-13T02:06:42;7.20;99.90
3727;DHT22;1879;45.876;12.300;2023-01-13T02:09:10;7.20;99.90
3727;DHT22;1879;45.876;12.300;2023-01-13T02:11:37;7.10;99.90
3727;DHT22;1879;45.876;12.300;2023-01-13T02:14:23;7.10;99.90
3727;DHT22;1879;45.876;12.300;2023-01-13T02:17:11;7.10;99.90
3727;DHT22;1879;45.876;12.300;2023-01-13T02:23:17;7.10;99.90
3727;DHT22;1879;45.876;12.300;2023-01-13T02:26:23;7.10;99.90
3727;DHT22;1879;45.876;12.300;2023-01-13T02:29:07;7.10;99.90
3727;DHT22;1879;45.876;12.300;2023-01-13T02:31:57;7.00;99.90
3727;DHT22;1879;45.876;12.300;2023-01-13T02:34:31;6.90;99.90
3727;DHT22;1879;45.876;12.300;2023-01-13T02:37:04;6.90;99.90
3727;DHT22;1879;45.876;12.300;2023-01-13T02:39:36;6.90;99.90
3727;DHT22;1879;45.876;12.300;2023-01-13T02:42:07;6.90;99.90
3727;DHT22;1879;45.876;12.300;2023-01-13T02:44:56;6.90;99.90
3727;DHT22;1879;45.876;12.300;2023-01-13T02:47:27;6.90;99.90
3727;DHT22;1879;45.876;12.300;2023-01-13T02:49:58;7.00;99.90
3727;DHT22;1879;45.876;12.300;2023-01-13T02:52:30;7.00;99.90
3727;DHT22;1879;45.876;12.300;2023-01-13T02:55:04;7.10;99.90
3727;DHT22;1879;45.876;12.300;2023-01-13T02:57:33;7.10;99.90
3727;DHT22;1879;45.876;12.300;2023-01-13T03:00:02;7.10;99.90
3727;DHT22;1879;45.876;12.300;2023-01-13T03:02:31;7.10;99.90
3727;DHT22;1879;45.876;12.300;2023-01-13T03:04:59;7.10;99.90
3727;DHT22;1879;45.876;12.300;2023-01-13T03:07:52;7.10;99.90
3727;DHT22;1879;45.876;12.300;2023-01-13T03:13:51;7.10;99.90
3727;DHT22;1879;45.876;12.300;2023-01-13T03:16:30;7.10;99.90
3727;DHT22;1879;45.876;12.300;2023-01-13T03:19:10;7.10;99.90
3727;DHT22;1879;45.876;12.300;2023-01-13T03:21:47;7.00;99.90
3727;DHT22;1879;45.876;12.300;2023-01-13T03:24:19;7.00;99.90
3727;DHT22;1879;45.876;12.300;2023-01-13T03:26:49;7.00;99.90
3727;DHT22;1879;45.876;12.300;2023-01-13T03:29:20;7.00;99.90
3727;DHT22;1879;45.876;12.300;2023-01-13T03:31:56;6.90;99.90
3727;DHT22;1879;45.876;12.300;2023-01-13T03:34:30;6.80;99.90
3727;DHT22;1879;45.876;12.300;2023-01-13T03:37:02;6.70;99.90
3727;DHT22;1879;45.876;12.300;2023-01-13T03:39:33;6.70;99.90
3727;DHT22;1879;45.876;12.300;2023-01-13T03:42:03;6.80;99.90
3727;DHT22;1879;45.876;12.300;2023-01-13T03:44:33;6.80;99.90
3727;DHT22;1879;45.876;12.300;2023-01-13T03:47:08;6.80;99.90
3727;DHT22;1879;45.876;12.300;2023-01-13T03:49:42;6.80;99.90
3727;DHT22;1879;45.876;12.300;2023-01-13T03:52:15;6.80;99.90
3727;DHT22;1879;45.876;12.300;2023-01-13T03:54:48;6.80;99.90
3727;DHT22;1879;45.876;12.300;2023-01-13T03:57:18;6.80;99.90
3727;DHT22;1879;45.876;12.300;2023-01-13T03:59:49;6.80;99.90
3727;DHT22;1879;45.876;12.300;2023-01-13T04:02:24;6.80;99.90
3727;DHT22;1879;45.876;12.300;2023-01-13T04:04:57;6.80;99.90
3727;DHT22;1879;45.876;12.300;2023-01-13T04:07:32;6.80;99.90
3727;DHT22;1879;45.876;12.300;2023-01-13T04:10:06;6.70;99.90
3727;DHT22;1879;45.876;12.300;2023-01-13T04:12:37;6.70;99.90
3727;DHT22;1879;45.876;12.300;2023-01-13T04:15:24;6.70;99.90
3727;DHT22;1879;45.876;12.300;2023-01-13T04:17:53;6.70;99.90
3727;DHT22;1879;45.876;12.300;2023-01-13T04:20:21;6.70;99.90
3727;DHT22;1879;45.876;12.300;2023-01-13T04:22:48;6.70;99.90
3727;DHT22;1879;45.876;12.300;2023-01-13T04:25:15;6.60;99.90
3727;DHT22;1879;45.876;12.300;2023-01-13T04:27:42;6.60;99.90
3727;DHT22;1879;45.876;12.300;2023-01-13T04:30:10;6.70;99.90
3727;DHT22;1879;45.876;12.300;2023-01-13T04:32:37;6.60;99.90
3727;DHT22;1879;45.876;12.300;2023-01-13T04:35:05;6.60;99.90
3727;DHT22;1879;45.876;12.300;2023-01-13T04:37:34;6.60;99.90
3727;DHT22;1879;45.876;12.300;2023-01-13T04:40:01;6.50;99.90
3727;DHT22;1879;45.876;12.300;2023-01-13T04:42:28;6.50;99.90
3727;DHT22;1879;45.876;12.300;2023-01-13T04:44:55;6.60;99.90
3727;DHT22;1879;45.876;12.300;2023-01-13T04:47:22;6.50;99.90
3727;DHT22;1879;45.876;12.300;2023-01-13T04:49:49;6.50;99.90
3727;DHT22;1879;45.876;12.300;2023-01-13T04:52:16;6.60;99.90
3727;DHT22;1879;45.876;12.300;2023-01-13T04:54:44;6.60;99.90
3727;DHT22;1879;45.876;12.300;2023-01-13T04:57:11;6.60;99.90
3727;DHT22;1879;45.876;12.300;2023-01-13T04:59:38;6.70;99.90
3727;DHT22;1879;45.876;12.300;2023-01-13T05:02:07;6.70;99.90
3727;DHT22;1879;45.876;12.300;2023-01-13T05:04:34;6.70;99.90
3727;DHT22;1879;45.876;12.300;2023-01-13T05:07:01;6.80;99.90
3727;DHT22;1879;45.876;12.300;2023-01-13T05:09:28;6.80;99.90
3727;DHT22;1879;45.876;12.300;2023-01-13T05:11:56;6.80;99.90
3727;DHT22;1879;45.876;12.300;2023-01-13T05:14:40;6.90;99.90
3727;DHT22;1879;45.876;12.300;2023-01-13T05:17:25;6.90;99.90
3727;DHT22;1879;45.876;12.300;2023-01-13T05:19:52;6.90;99.90
3727;DHT22;1879;45.876;12.300;2023-01-13T05:22:19;7.00;99.90
3727;DHT22;1879;45.876;12.300;2023-01-13T05:25:04;7.00;99.90
3727;DHT22;1879;45.876;12.300;2023-01-13T05:27:52;7.00;99.90
3727;DHT22;1879;45.876;12.300;2023-01-13T05:30:20;6.90;99.90
3727;DHT22;1879;45.876;12.300;2023-01-13T05:32:47;6.90;99.90
3727;DHT22;1879;45.876;12.300;2023-01-13T05:35:15;6.90;99.90
3727;DHT22;1879;45.876;12.300;2023-01-13T05:37:42;6.90;99.90
3727;DHT22;1879;45.876;12.300;2023-01-13T05:40:11;7.00;99.90
3727;DHT22;1879;45.876;12.300;2023-01-13T05:43:05;7.00;99.90
3727;DHT22;1879;45.876;12.300;2023-01-13T05:45:51;7.00;99.90
3727;DHT22;1879;45.876;12.300;2023-01-13T05:48:20;7.00;99.90
3727;DHT22;1879;45.876;12.300;2023-01-13T05:50:48;7.00;99.90
3727;DHT22;1879;45.876;12.300;2023-01-13T05:53:15;7.00;99.90
3727;DHT22;1879;45.876;12.300;2023-01-13T05:55:43;7.00;99.90
3727;DHT22;1879;45.876;12.300;2023-01-13T05:58:13;7.10;99.90
3727;DHT22;1879;45.876;12.300;2023-01-13T06:00:41;7.10;99.90
3727;DHT22;1879;45.876;12.300;2023-01-13T06:03:08;7.10;99.90
3727;DHT22;1879;45.876;12.300;2023-01-13T06:05:35;7.10;99.90
3727;DHT22;1879;45.876;12.300;2023-01-13T06:08:03;7.10;99.90
3727;DHT22;1879;45.876;12.300;2023-01-13T06:10:31;7.10;99.90
3727;DHT22;1879;45.876;12.300;2023-01-13T06:12:58;7.00;99.90
3727;DHT22;1879;45.876;12.300;2023-01-13T06:15:26;7.00;99.90
3727;DHT22;1879;45.876;12.300;2023-01-13T06:17:53;7.00;99.90
3727;DHT22;1879;45.876;12.300;2023-01-13T06:20:22;6.90;99.90
3727;DHT22;1879;45.876;12.300;2023-01-13T06:22:50;6.90;99.90
3727;DHT22;1879;45.876;12.300;2023-01-13T06:25:22;6.90;99.90
3727;DHT22;1879;45.876;12.300;2023-01-13T06:27:52;6.90;99.90
3727;DHT22;1879;45.876;12.300;2023-01-13T06:30:20;6.90;99.90
3727;DHT22;1879;45.876;12.300;2023-01-13T06:32:51;6.90;99.90
3727;DHT22;1879;45.876;12.300;2023-01-13T06:35:22;6.90;99.90
3727;DHT22;1879;45.876;12.300;2023-01-13T06:37:52;6.90;99.90
3727;DHT22;1879;45.876;12.300;2023-01-13T06:40:20;6.90;99.90
3727;DHT22;1879;45.876;12.300;2023-01-13T06:42:48;6.80;99.90
3727;DHT22;1879;45.876;12.300;2023-01-13T06:45:33;6.80;99.90
3727;DHT22;1879;45.876;12.300;2023-01-13T06:48:02;6.80;99.90
3727;DHT22;1879;45.876;12.300;2023-01-13T06:50:29;6.80;99.90
3727;DHT22;1879;45.876;12.300;2023-01-13T06:52:56;6.80;99.90
3727;DHT22;1879;45.876;12.300;2023-01-13T06:55:23;6.90;99.90
3727;DHT22;1879;45.876;12.300;2023-01-13T06:57:51;6.90;99.90
3727;DHT22;1879;45.876;12.300;2023-01-13T07:00:20;6.80;99.90
3727;DHT22;1879;45.876;12.300;2023-01-13T07:02:47;6.80;99.90
3727;DHT22;1879;45.876;12.300;2023-01-13T07:05:17;6.80;99.90
3727;DHT22;1879;45.876;12.300;2023-01-13T07:07:44;6.80;99.90
3727;DHT22;1879;45.876;12.300;2023-01-13T07:10:13;6.80;99.90
3727;DHT22;1879;45.876;12.300;2023-01-13T07:12:47;6.90;99.90
3727;DHT22;1879;45.876;12.300;2023-01-13T07:15:32;6.90;99.90
3727;DHT22;1879;45.876;12.300;2023-01-13T07:18:00;6.90;99.90
3727;DHT22;1879;45.876;12.300;2023-01-13T07:20:29;6.80;99.90
3727;DHT22;1879;45.876;12.300;2023-01-13T07:22:56;6.90;99.90
3727;DHT22;1879;45.876;12.300;2023-01-13T07:25:23;6.90;99.90
3727;DHT22;1879;45.876;12.300;2023-01-13T07:27:52;6.90;99.90
3727;DHT22;1879;45.876;12.300;2023-01-13T07:30:19;7.00;99.90
3727;DHT22;1879;45.876;12.300;2023-01-13T07:32:46;7.10;99.90
3727;DHT22;1879;45.876;12.300;2023-01-13T07:35:13;7.10;99.90
3727;DHT22;1879;45.876;12.300;2023-01-13T07:37:41;7.10;99.90
3727;DHT22;1879;45.876;12.300;2023-01-13T07:40:09;7.20;99.90
3727;DHT22;1879;45.876;12.300;2023-01-13T07:42:38;7.20;99.90
3727;DHT22;1879;45.876;12.300;2023-01-13T07:45:22;7.20;99.90
3727;DHT22;1879;45.876;12.300;2023-01-13T07:47:52;7.20;99.90
3727;DHT22;1879;45.876;12.300;2023-01-13T07:50:19;7.30;99.90
3727;DHT22;1879;45.876;12.300;2023-01-13T07:52:49;7.30;99.90
3727;DHT22;1879;45.876;12.300;2023-01-13T07:55:17;7.40;99.90
3727;DHT22;1879;45.876;12.300;2023-01-13T07:57:43;7.50;99.90
3727;DHT22;1879;45.876;12.300;2023-01-13T08:00:11;7.60;99.90
3727;DHT22;1879;45.876;12.300;2023-01-13T08:02:38;7.60;99.90
3727;DHT22;1879;45.876;12.300;2023-01-13T08:05:06;7.70;99.90
3727;DHT22;1879;45.876;12.300;2023-01-13T08:07:33;7.80;99.90
3727;DHT22;1879;45.876;12.300;2023-01-13T08:10:02;7.80;99.90
3727;DHT22;1879;45.876;12.300;2023-01-13T08:12:29;7.90;99.90
3727;DHT22;1879;45.876;12.300;2023-01-13T08:15:14;7.90;99.90
3727;DHT22;1879;45.876;12.300;2023-01-13T08:17:41;7.90;99.90
3727;DHT22;1879;45.876;12.300;2023-01-13T08:20:09;7.90;99.90
3727;DHT22;1879;45.876;12.300;2023-01-13T08:22:36;8.00;99.90
3727;DHT22;1879;45.876;12.300;2023-01-13T08:25:05;8.00;99.90
3727;DHT22;1879;45.876;12.300;2023-01-13T08:27:32;8.10;99.90
3727;DHT22;1879;45.876;12.300;2023-01-13T08:29:59;8.20;99.90
3727;DHT22;1879;45.876;12.300;2023-01-13T08:32:26;8.30;99.90
3727;DHT22;1879;45.876;12.300;2023-01-13T08:34:53;8.40;99.90
3727;DHT22;1879;45.876;12.300;2023-01-13T08:37:20;8.50;99.90
3727;DHT22;1879;45.876;12.300;2023-01-13T08:39:47;8.50;99.90
3727;DHT22;1879;45.876;12.300;2023-01-13T08:42:15;8.50;99.90
3727;DHT22;1879;45.876;12.300;2023-01-13T08:44:42;8.50;99.90
3727;DHT22;1879;45.876;12.300;2023-01-13T08:47:09;8.60;99.90
3727;DHT22;1879;45.876;12.300;2023-01-13T08:49:36;8.60;99.90
3727;DHT22;1879;45.876;12.300;2023-01-13T08:52:03;8.60;99.90
3727;DHT22;1879;45.876;12.300;2023-01-13T08:54:30;8.60;99.90
3727;DHT22;1879;45.876;12.300;2023-01-13T14:55:25;15.60;83.90
3727;DHT22;1879;45.876;12.300;2023-01-13T14:57:53;15.20;86.70
3727;DHT22;1879;45.876;12.300;2023-01-13T15:00:40;15.00;89.90
3727;DHT22;1879;45.876;12.300;2023-01-13T15:03:07;15.20;90.10
3727;DHT22;1879;45.876;12.300;2023-01-13T15:05:42;15.50;89.10
3727;DHT22;1879;45.876;12.300;2023-01-13T15:08:34;15.70;86.10
3727;DHT22;1879;45.876;12.300;2023-01-13T15:11:06;15.40;84.20
3727;DHT22;1879;45.876;12.300;2023-01-13T15:13:45;15.00;86.50
3727;DHT22;1879;45.876;12.300;2023-01-13T15:16:15;14.40;87.00
3727;DHT22;1879;45.876;12.300;2023-01-13T15:18:43;13.80;87.80
3727;DHT22;1879;45.876;12.300;2023-01-13T15:21:11;13.30;89.20
3727;DHT22;1879;45.876;12.300;2023-01-13T15:23:40;12.90;90.50
3727;DHT22;1879;45.876;12.300;2023-01-13T15:26:23;12.60;91.30
3727;DHT22;1879;45.876;12.300;2023-01-13T15:28:51;12.30;92.10
3727;DHT22;1879;45.876;12.300;2023-01-13T15:31:19;12.10;92.80
3727;DHT22;1879;45.876;12.300;2023-01-13T15:33:47;11.90;93.40
3727;DHT22;1879;45.876;12.300;2023-01-13T15:36:21;11.70;93.90
3727;DHT22;1879;45.876;12.300;2023-01-13T15:38:48;11.50;94.50
3727;DHT22;1879;45.876;12.300;2023-01-13T15:41:15;11.30;95.10
3727;DHT22;1879;45.876;12.300;2023-01-13T15:43:43;11.20;96.00
3727;DHT22;1879;45.876;12.300;2023-01-13T15:46:27;11.00;97.40
3727;DHT22;1879;45.876;12.300;2023-01-13T15:49:06;10.80;98.30
3727;DHT22;1879;45.876;12.300;2023-01-13T15:51:37;10.60;99.60
3727;DHT22;1879;45.876;12.300;2023-01-13T15:54:05;10.50;99.90
3727;DHT22;1879;45.876;12.300;2023-01-13T15:56:33;10.40;99.90
3727;DHT22;1879;45.876;12.300;2023-01-13T15:59:03;10.20;99.90
3727;DHT22;1879;45.876;12.300;2023-01-13T16:01:30;10.10;99.90
3727;DHT22;1879;45.876;12.300;2023-01-13T16:03:57;10.00;99.90
3727;DHT22;1879;45.876;12.300;2023-01-13T16:06:28;9.90;99.90
3727;DHT22;1879;45.876;12.300;2023-01-13T16:08:57;9.80;99.90
3727;DHT22;1879;45.876;12.300;2023-01-13T16:11:24;9.80;99.90
3727;DHT22;1879;45.876;12.300;2023-01-13T16:13:51;9.80;99.90
3727;DHT22;1879;45.876;12.300;2023-01-13T16:16:20;9.70;99.90
3727;DHT22;1879;45.876;12.300;2023-01-13T16:18:48;9.70;99.90
3727;DHT22;1879;45.876;12.300;2023-01-13T16:21:16;9.50;99.90
3727;DHT22;1879;45.876;12.300;2023-01-13T16:23:45;9.50;99.90
3727;DHT22;1879;45.876;12.300;2023-01-13T16:26:16;9.40;99.90
3727;DHT22;1879;45.876;12.300;2023-01-13T16:28:44;9.40;99.90
3727;DHT22;1879;45.876;12.300;2023-01-13T16:31:17;9.30;99.90
3727;DHT22;1879;45.876;12.300;2023-01-13T16:33:45;9.20;99.90
3727;DHT22;1879;45.876;12.300;2023-01-13T16:36:14;9.10;99.90
3727;DHT22;1879;45.876;12.300;2023-01-13T16:38:41;9.10;99.90
3727;DHT22;1879;45.876;12.300;2023-01-13T16:41:09;9.00;99.90
3727;DHT22;1879;45.876;12.300;2023-01-13T16:43:36;8.90;99.90
3727;DHT22;1879;45.876;12.300;2023-01-13T16:46:16;8.90;99.90
3727;DHT22;1879;45.876;12.300;2023-01-13T16:48:45;8.80;99.90
3727;DHT22;1879;45.876;12.300;2023-01-13T16:51:12;8.70;99.90
3727;DHT22;1879;45.876;12.300;2023-01-13T16:53:39;8.70;99.90
3727;DHT22;1879;45.876;12.300;2023-01-13T16:56:17;8.50;99.90
3727;DHT22;1879;45.876;12.300;2023-01-13T16:58:48;8.50;99.90
3727;DHT22;1879;45.876;12.300;2023-01-13T17:01:19;8.40;99.90
3727;DHT22;1879;45.876;12.300;2023-01-13T17:03:47;8.30;99.90
3727;DHT22;1879;45.876;12.300;2023-01-13T17:06:17;8.30;99.90
3727;DHT22;1879;45.876;12.300;2023-01-13T17:08:44;8.20;99.90
3727;DHT22;1879;45.876;12.300;2023-01-13T17:11:11;8.10;99.90
3727;DHT22;1879;45.876;12.300;2023-01-13T17:13:39;8.00;99.90
3727;DHT22;1879;45.876;12.300;2023-01-13T17:16:14;8.00;99.90
3727;DHT22;1879;45.876;12.300;2023-01-13T17:18:42;7.90;99.90
3727;DHT22;1879;45.876;12.300;2023-01-13T17:21:10;7.90;99.90
3727;DHT22;1879;45.876;12.300;2023-01-13T17:23:37;7.90;99.90
3727;DHT22;1879;45.876;12.300;2023-01-13T17:26:04;8.00;99.90
3727;DHT22;1879;45.876;12.300;2023-01-13T17:28:31;8.00;99.90
3727;DHT22;1879;45.876;12.300;2023-01-13T17:30:58;8.00;99.90
3727;DHT22;1879;45.876;12.300;2023-01-13T17:33:25;8.00;99.90
3727;DHT22;1879;45.876;12.300;2023-01-13T17:35:54;7.90;99.90
3727;DHT22;1879;45.876;12.300;2023-01-13T17:38:22;7.80;99.90
3727;DHT22;1879;45.876;12.300;2023-01-13T17:40:49;7.80;99.90
3727;DHT22;1879;45.876;12.300;2023-01-13T17:43:16;7.70;99.90
3727;DHT22;1879;45.876;12.300;2023-01-13T17:45:43;7.70;99.90
3727;DHT22;1879;45.876;12.300;2023-01-13T17:48:10;7.60;99.90
3727;DHT22;1879;45.876;12.300;2023-01-13T17:50:38;7.60;99.90
3727;DHT22;1879;45.876;12.300;2023-01-13T17:53:04;7.60;99.90
3727;DHT22;1879;45.876;12.300;2023-01-13T17:55:33;7.60;99.90
3727;DHT22;1879;45.876;12.300;2023-01-13T17:58:00;7.60;99.90
3727;DHT22;1879;45.876;12.300;2023-01-13T18:00:27;7.60;99.90
3727;DHT22;1879;45.876;12.300;2023-01-13T18:02:54;7.60;99.90
3727;DHT22;1879;45.876;12.300;2023-01-13T18:05:21;7.60;99.90
3727;DHT22;1879;45.876;12.300;2023-01-13T18:07:48;7.50;99.90
3727;DHT22;1879;45.876;12.300;2023-01-13T18:10:16;7.40;99.90
3727;DHT22;1879;45.876;12.300;2023-01-13T18:12:45;7.20;99.90
3727;DHT22;1879;45.876;12.300;2023-01-13T18:15:12;7.10;99.90
3727;DHT22;1879;45.876;12.300;2023-01-13T18:17:39;7.00;99.90
3727;DHT22;1879;45.876;12.300;2023-01-13T18:20:06;7.10;99.90
3727;DHT22;1879;45.876;12.300;2023-01-13T18:22:59;7.00;99.90
3727;DHT22;1879;45.876;12.300;2023-01-13T18:25:44;6.90;99.90
3727;DHT22;1879;45.876;12.300;2023-01-13T18:28:30;6.90;99.90
3727;DHT22;1879;45.876;12.300;2023-01-13T18:30:57;6.90;99.90
3727;DHT22;1879;45.876;12.300;2023-01-13T18:33:24;6.90;99.90
3727;DHT22;1879;45.876;12.300;2023-01-13T18:35:51;6.90;99.90
3727;DHT22;1879;45.876;12.300;2023-01-13T18:38:18;6.90;99.90
3727;DHT22;1879;45.876;12.300;2023-01-13T18:40:45;7.00;99.90
3727;DHT22;1879;45.876;12.300;2023-01-13T18:43:12;7.00;99.90
3727;DHT22;1879;45.876;12.300;2023-01-13T18:45:40;7.10;99.90
3727;DHT22;1879;45.876;12.300;2023-01-13T18:48:07;7.10;99.90
3727;DHT22;1879;45.876;12.300;2023-01-13T18:50:33;7.10;99.90
3727;DHT22;1879;45.876;12.300;2023-01-13T18:53:01;7.00;99.90
3727;DHT22;1879;45.876;12.300;2023-01-13T18:55:28;7.00;99.90
3727;DHT22;1879;45.876;12.300;2023-01-13T18:57:55;7.00;99.90
3727;DHT22;1879;45.876;12.300;2023-01-13T19:00:23;6.90;99.90
3727;DHT22;1879;45.876;12.300;2023-01-13T19:02:53;6.70;99.90
3727;DHT22;1879;45.876;12.300;2023-01-13T19:05:23;6.50;99.90
3727;DHT22;1879;45.876;12.300;2023-01-13T19:07:50;6.50;99.90
3727;DHT22;1879;45.876;12.300;2023-01-13T19:10:17;6.50;99.90
3727;DHT22;1879;45.876;12.300;2023-01-13T19:12:44;6.50;99.90
3727;DHT22;1879;45.876;12.300;2023-01-13T19:15:11;6.50;99.90
3727;DHT22;1879;45.876;12.300;2023-01-13T19:17:38;6.60;99.90
3727;DHT22;1879;45.876;12.300;2023-01-13T19:20:08;6.70;99.90
3727;DHT22;1879;45.876;12.300;2023-01-13T19:22:35;6.60;99.90
3727;DHT22;1879;45.876;12.300;2023-01-13T19:25:03;6.60;99.90
3727;DHT22;1879;45.876;12.300;2023-01-13T19:27:30;6.50;99.90
3727;DHT22;1879;45.876;12.300;2023-01-13T19:29:57;6.50;99.90
3727;DHT22;1879;45.876;12.300;2023-01-13T19:32:25;6.50;99.90
3727;DHT22;1879;45.876;12.300;2023-01-13T19:34:52;6.40;99.90
3727;DHT22;1879;45.876;12.300;2023-01-13T19:37:25;6.40;99.90
3727;DHT22;1879;45.876;12.300;2023-01-13T19:39:58;6.30;99.90
3727;DHT22;1879;45.876;12.300;2023-01-13T19:42:25;6.30;99.90
3727;DHT22;1879;45.876;12.300;2023-01-13T19:45:12;6.10;99.90
3727;DHT22;1879;45.876;12.300;2023-01-13T19:47:57;5.90;99.90
3727;DHT22;1879;45.876;12.300;2023-01-13T19:50:26;5.70;99.90
3727;DHT22;1879;45.876;12.300;2023-01-13T19:52:54;5.60;99.90
3727;DHT22;1879;45.876;12.300;2023-01-13T19:55:21;5.60;99.90
3727;DHT22;1879;45.876;12.300;2023-01-13T19:57:48;5.60;99.90
3727;DHT22;1879;45.876;12.300;2023-01-13T20:00:15;5.60;99.90
3727;DHT22;1879;45.876;12.300;2023-01-13T20:02:45;5.60;99.90
3727;DHT22;1879;45.876;12.300;2023-01-13T20:05:14;5.80;99.90
3727;DHT22;1879;45.876;12.300;2023-01-13T20:07:45;5.80;99.90
3727;DHT22;1879;45.876;12.300;2023-01-13T20:10:14;5.80;99.90
3727;DHT22;1879;45.876;12.300;2023-01-13T20:12:41;6.00;99.90
3727;DHT22;1879;45.876;12.300;2023-01-13T20:15:09;6.10;99.90
3727;DHT22;1879;45.876;12.300;2023-01-13T20:17:36;6.20;99.90
3727;DHT22;1879;45.876;12.300;2023-01-13T20:20:03;6.30;99.90
3727;DHT22;1879;45.876;12.300;2023-01-13T20:22:30;6.40;99.90
3727;DHT22;1879;45.876;12.300;2023-01-13T20:24:57;6.50;99.90
3727;DHT22;1879;45.876;12.300;2023-01-13T20:27:25;6.60;99.90
3727;DHT22;1879;45.876;12.300;2023-01-13T20:29:52;6.70;99.90
3727;DHT22;1879;45.876;12.300;2023-01-13T20:32:19;6.70;99.90
3727;DHT22;1879;45.876;12.300;2023-01-13T20:34:46;6.50;99.90
3727;DHT22;1879;45.876;12.300;2023-01-13T20:37:13;6.50;99.90
3727;DHT22;1879;45.876;12.300;2023-01-13T20:39:40;6.50;99.90
3727;DHT22;1879;45.876;12.300;2023-01-13T20:42:09;6.40;99.90
3727;DHT22;1879;45.876;12.300;2023-01-13T20:44:55;6.40;99.90
3727;DHT22;1879;45.876;12.300;2023-01-13T20:47:23;6.30;99.90
3727;DHT22;1879;45.876;12.300;2023-01-13T20:49:50;6.30;99.90
3727;DHT22;1879;45.876;12.300;2023-01-13T20:52:17;6.30;99.90
3727;DHT22;1879;45.876;12.300;2023-01-13T20:54:44;6.40;99.90
3727;DHT22;1879;45.876;12.300;2023-01-13T20:57:11;6.40;99.90
3727;DHT22;1879;45.876;12.300;2023-01-13T20:59:38;6.40;99.90
3727;DHT22;1879;45.876;12.300;2023-01-13T21:02:10;6.50;99.90
3727;DHT22;1879;45.876;12.300;2023-01-13T21:04:38;6.50;99.90
3727;DHT22;1879;45.876;12.300;2023-01-13T21:07:05;6.50;99.90
3727;DHT22;1879;45.876;12.300;2023-01-13T21:09:32;6.50;99.90
3727;DHT22;1879;45.876;12.300;2023-01-13T21:11:59;6.50;99.90
3727;DHT22;1879;45.876;12.300;2023-01-13T21:14:43;6.40;99.90
3727;DHT22;1879;45.876;12.300;2023-01-13T21:17:28;6.40;99.90
3727;DHT22;1879;45.876;12.300;2023-01-13T21:20:14;6.30;99.90
3727;DHT22;1879;45.876;12.300;2023-01-13T21:22:43;6.30;99.90
3727;DHT22;1879;45.876;12.300;2023-01-13T21:25:11;6.30;99.90
3727;DHT22;1879;45.876;12.300;2023-01-13T21:27:38;6.20;99.90
3727;DHT22;1879;45.876;12.300;2023-01-13T21:30:06;6.20;99.90
3727;DHT22;1879;45.876;12.300;2023-01-13T21:32:35;6.20;99.90
3727;DHT22;1879;45.876;12.300;2023-01-13T21:35:02;6.10;99.90
3727;DHT22;1879;45.876;12.300;2023-01-13T21:37:30;6.00;99.90
3727;DHT22;1879;45.876;12.300;2023-01-13T21:39:57;6.00;99.90
3727;DHT22;1879;45.876;12.300;2023-01-13T21:42:23;6.00;99.90
3727;DHT22;1879;45.876;12.300;2023-01-13T21:45:09;5.90;99.90
3727;DHT22;1879;45.876;12.300;2023-01-13T21:47:54;5.90;99.90
3727;DHT22;1879;45.876;12.300;2023-01-13T21:50:23;5.80;99.90
3727;DHT22;1879;45.876;12.300;2023-01-13T21:52:51;5.70;99.90
3727;DHT22;1879;45.876;12.300;2023-01-13T21:55:19;5.70;99.90
3727;DHT22;1879;45.876;12.300;2023-01-13T21:57:50;5.60;99.90
3727;DHT22;1879;45.876;12.300;2023-01-13T22:00:19;5.60;99.90
3727;DHT22;1879;45.876;12.300;2023-01-13T22:02:47;5.60;99.90
3727;DHT22;1879;45.876;12.300;2023-01-13T22:05:17;5.60;99.90
3727;DHT22;1879;45.876;12.300;2023-01-13T22:07:45;5.50;99.90
3727;DHT22;1879;45.876;12.300;2023-01-13T22:10:14;5.30;99.90
3727;DHT22;1879;45.876;12.300;2023-01-13T22:12:42;5.20;99.90
3727;DHT22;1879;45.876;12.300;2023-01-13T22:15:10;5.20;99.90
3727;DHT22;1879;45.876;12.300;2023-01-13T22:17:39;5.20;99.90
3727;DHT22;1879;45.876;12.300;2023-01-13T22:20:08;5.20;99.90
3727;DHT22;1879;45.876;12.300;2023-01-13T22:22:36;5.10;99.90